sensor_id;sensor_type;location;lat;lon;timestamp;pressure;altitude;pressure_sealevel;temperature;humidity
73341;BME280;61578;52.002;5.468;2022-07-09T00:00:25;102777.94;;;17.25;77.41
73341;BME280;61578;52.002;5.468;2022-07-09T00:00:56;102782.34;;;17.26;77.25
73341;BME280;61578;52.002;5.468;2022-07-09T00:01:27;102790.31;;;17.27;77.40
73341;BME280;61578;52.002;5.468;2022-07-09T00:01:58;102790.22;;;17.29;77.09
73341;BME280;61578;52.002;5.468;2022-07-09T00:02:29;102795.47;;;17.30;77.59
73341;BME280;61578;52.002;5.468;2022-07-09T00:02:59;102789.34;;;17.28;77.54
73341;BME280;61578;52.002;5.468;2022-07-09T00:03:30;102792.03;;;17.28;77.72
73341;BME280;61578;52.002;5.468;2022-07-09T00:04:01;102773.03;;;17.17;77.68
73341;BME280;61578;52.002;5.468;2022-07-09T00:04:31;102789.44;;;17.27;77.92
73341;BME280;61578;52.002;5.468;2022-07-09T00:05:02;102787.63;;;17.27;78.08
73341;BME280;61578;52.002;5.468;2022-07-09T00:05:33;102785.91;;;17.26;77.34
73341;BME280;61578;52.002;5.468;2022-07-09T00:06:04;102785.03;;;17.26;77.88
73341;BME280;61578;52.002;5.468;2022-07-09T00:06:35;102785.91;;;17.26;77.41
73341;BME280;61578;52.002;5.468;2022-07-09T00:07:05;102785.91;;;17.26;77.31
73341;BME280;61578;52.002;5.468;2022-07-09T00:07:36;102782.44;;;17.24;77.17
73341;BME280;61578;52.002;5.468;2022-07-09T00:08:07;102783.38;;;17.23;78.06
73341;BME280;61578;52.002;5.468;2022-07-09T00:08:38;102792.41;;;17.22;77.40
73341;BME280;61578;52.002;5.468;2022-07-09T00:09:08;102788.94;;;17.20;77.51
73341;BME280;61578;52.002;5.468;2022-07-09T00:09:39;102788.19;;;17.18;77.55
73341;BME280;61578;52.002;5.468;2022-07-09T00:10:10;102781.09;;;17.17;77.69
73341;BME280;61578;52.002;5.468;2022-07-09T00:10:41;102774.00;;;17.16;78.12
73341;BME280;61578;52.002;5.468;2022-07-09T00:11:12;102783.00;;;17.15;78.07
73341;BME280;61578;52.002;5.468;2022-07-09T00:11:42;102778.75;;;17.11;78.04
73341;BME280;61578;52.002;5.468;2022-07-09T00:12:13;102778.88;;;17.10;77.85
73341;BME280;61578;52.002;5.468;2022-07-09T00:12:44;102775.59;;;17.05;77.93
73341;BME280;61578;52.002;5.468;2022-07-09T00:13:15;102774.63;;;17.06;77.80
73341;BME280;61578;52.002;5.468;2022-07-09T00:13:45;102777.16;;;17.09;77.88
73341;BME280;61578;52.002;5.468;2022-07-09T00:14:16;102760.06;;;16.96;77.78
73341;BME280;61578;52.002;5.468;2022-07-09T00:14:47;102780.09;;;17.04;78.48
73341;BME280;61578;52.002;5.468;2022-07-09T00:15:18;102769.66;;;17.00;78.11
73341;BME280;61578;52.002;5.468;2022-07-09T00:15:49;102773.88;;;17.04;78.36
73341;BME280;61578;52.002;5.468;2022-07-09T00:16:20;102781.06;;;17.03;78.36
73341;BME280;61578;52.002;5.468;2022-07-09T00:16:51;102768.19;;;16.94;78.20
73341;BME280;61578;52.002;5.468;2022-07-09T00:17:21;102760.69;;;16.85;78.15
73341;BME280;61578;52.002;5.468;2022-07-09T00:17:52;102768.09;;;16.96;78.33
73341;BME280;61578;52.002;5.468;2022-07-09T00:18:23;102774.34;;;16.96;78.02
73341;BME280;61578;52.002;5.468;2022-07-09T00:18:53;102778.66;;;16.99;78.05
73341;BME280;61578;52.002;5.468;2022-07-09T00:19:24;102733.72;;;16.72;78.45
73341;BME280;61578;52.002;5.468;2022-07-09T00:19:55;102781.44;;;16.97;78.27
73341;BME280;61578;52.002;5.468;2022-07-09T00:20:26;102775.28;;;16.95;78.45
73341;BME280;61578;52.002;5.468;2022-07-09T00:20:57;102753.97;;;16.78;78.43
73341;BME280;61578;52.002;5.468;2022-07-09T00:21:27;102752.25;;;16.77;78.21
73341;BME280;61578;52.002;5.468;2022-07-09T00:21:58;102775.47;;;16.92;78.48
73341;BME280;61578;52.002;5.468;2022-07-09T00:22:28;102781.78;;;16.91;78.39
73341;BME280;61578;52.002;5.468;2022-07-09T00:22:59;102780.06;;;16.90;78.42
73341;BME280;61578;52.002;5.468;2022-07-09T00:23:30;102759.22;;;16.79;78.19
73341;BME280;61578;52.002;5.468;2022-07-09T00:24:00;102770.94;;;16.78;78.51
73341;BME280;61578;52.002;5.468;2022-07-09T00:24:31;102780.50;;;16.82;78.09
73341;BME280;61578;52.002;5.468;2022-07-09T00:25:03;102783.09;;;16.84;78.40
73341;BME280;61578;52.002;5.468;2022-07-09T00:25:34;102778.00;;;16.79;78.58
73341;BME280;61578;52.002;5.468;2022-07-09T00:26:05;102780.59;;;16.81;78.68
73341;BME280;61578;52.002;5.468;2022-07-09T00:26:36;102771.28;;;16.72;78.54
73341;BME280;61578;52.002;5.468;2022-07-09T00:27:06;102785.09;;;16.80;78.94
73341;BME280;61578;52.002;5.468;2022-07-09T00:27:37;102782.53;;;16.79;78.89
73341;BME280;61578;52.002;5.468;2022-07-09T00:28:08;102778.22;;;16.76;78.40
73341;BME280;61578;52.002;5.468;2022-07-09T00:28:38;102773.97;;;16.72;78.88
73341;BME280;61578;52.002;5.468;2022-07-09T00:29:09;102772.16;;;16.73;79.17
73341;BME280;61578;52.002;5.468;2022-07-09T00:29:40;102778.13;;;16.78;78.96
73341;BME280;61578;52.002;5.468;2022-07-09T00:30:11;102759.28;;;16.64;79.08
73341;BME280;61578;52.002;5.468;2022-07-09T00:30:41;102787.13;;;16.77;78.66
73341;BME280;61578;52.002;5.468;2022-07-09T00:31:12;102779.06;;;16.77;78.63
73341;BME280;61578;52.002;5.468;2022-07-09T00:31:43;102761.03;;;16.65;78.24
73341;BME280;61578;52.002;5.468;2022-07-09T00:32:16;102784.44;;;16.77;78.70
73341;BME280;61578;52.002;5.468;2022-07-09T00:32:48;102784.59;;;16.74;78.40
73341;BME280;61578;52.002;5.468;2022-07-09T00:33:19;102778.56;;;16.70;79.00
73341;BME280;61578;52.002;5.468;2022-07-09T00:33:49;102771.56;;;16.68;78.80
73341;BME280;61578;52.002;5.468;2022-07-09T00:34:20;102779.41;;;16.71;78.66
73341;BME280;61578;52.002;5.468;2022-07-09T00:34:51;102736.22;;;16.45;78.39
73341;BME280;61578;52.002;5.468;2022-07-09T00:35:21;102763.91;;;16.60;79.18
73341;BME280;61578;52.002;5.468;2022-07-09T00:35:52;102770.97;;;16.63;79.24
73341;BME280;61578;52.002;5.468;2022-07-09T00:36:23;102781.34;;;16.69;79.49
73341;BME280;61578;52.002;5.468;2022-07-09T00:36:53;102779.63;;;16.68;78.78
73341;BME280;61578;52.002;5.468;2022-07-09T00:37:24;102771.97;;;16.60;78.87
73341;BME280;61578;52.002;5.468;2022-07-09T00:37:55;102777.88;;;16.67;79.02
73341;BME280;61578;52.002;5.468;2022-07-09T00:38:25;102773.47;;;16.66;78.91
73341;BME280;61578;52.002;5.468;2022-07-09T00:38:56;102779.72;;;16.66;79.37
73341;BME280;61578;52.002;5.468;2022-07-09T00:39:27;102777.97;;;16.65;79.03
73341;BME280;61578;52.002;5.468;2022-07-09T00:39:58;102775.28;;;16.65;79.26
73341;BME280;61578;52.002;5.468;2022-07-09T00:40:28;102774.50;;;16.63;79.30
73341;BME280;61578;52.002;5.468;2022-07-09T00:40:59;102782.38;;;16.66;78.95
73341;BME280;61578;52.002;5.468;2022-07-09T00:41:30;102779.72;;;16.66;79.02
73341;BME280;61578;52.002;5.468;2022-07-09T00:42:05;102777.88;;;16.67;79.19
73341;BME280;61578;52.002;5.468;2022-07-09T00:42:36;102773.31;;;16.69;79.64
73341;BME280;61578;52.002;5.468;2022-07-09T00:43:17;102784.03;;;16.69;79.14
73341;BME280;61578;52.002;5.468;2022-07-09T00:43:50;102754.25;;;16.58;79.22
73341;BME280;61578;52.002;5.468;2022-07-09T00:44:21;102776.47;;;16.60;78.70
73341;BME280;61578;52.002;5.468;2022-07-09T00:44:51;102769.06;;;16.65;78.76
73341;BME280;61578;52.002;5.468;2022-07-09T00:45:22;102777.88;;;16.67;78.58
73341;BME280;61578;52.002;5.468;2022-07-09T00:45:53;102758.16;;;16.52;78.90
73341;BME280;61578;52.002;5.468;2022-07-09T00:46:24;102768.53;;;16.58;78.66
73341;BME280;61578;52.002;5.468;2022-07-09T00:46:54;102780.75;;;16.64;78.65
73341;BME280;61578;52.002;5.468;2022-07-09T00:47:25;102760.75;;;16.53;78.85
73341;BME280;61578;52.002;5.468;2022-07-09T00:47:55;102776.47;;;16.60;78.68
73341;BME280;61578;52.002;5.468;2022-07-09T00:48:26;102777.44;;;16.59;78.91
73341;BME280;61578;52.002;5.468;2022-07-09T00:48:57;102780.13;;;16.59;79.43
73341;BME280;61578;52.002;5.468;2022-07-09T00:49:42;102773.03;;;16.58;78.89
73341;BME280;61578;52.002;5.468;2022-07-09T00:50:13;102769.75;;;16.52;78.89
73341;BME280;61578;52.002;5.468;2022-07-09T00:50:45;102767.44;;;16.46;79.32
73341;BME280;61578;52.002;5.468;2022-07-09T00:51:18;102783.84;;;16.56;79.13
73341;BME280;61578;52.002;5.468;2022-07-09T00:51:50;102770.78;;;16.50;79.44
73341;BME280;61578;52.002;5.468;2022-07-09T00:52:22;102773.13;;;16.56;79.42
73341;BME280;61578;52.002;5.468;2022-07-09T00:52:53;102779.53;;;16.53;79.28
73341;BME280;61578;52.002;5.468;2022-07-09T00:53:25;102780.38;;;16.54;79.19
73341;BME280;61578;52.002;5.468;2022-07-09T00:53:56;102777.78;;;16.52;79.53
73341;BME280;61578;52.002;5.468;2022-07-09T00:54:28;102777.00;;;16.50;79.20
73341;BME280;61578;52.002;5.468;2022-07-09T00:55:00;102786.78;;;16.51;79.49
73341;BME280;61578;52.002;5.468;2022-07-09T00:55:32;102750.41;;;16.32;79.29
73341;BME280;61578;52.002;5.468;2022-07-09T00:56:04;102776.91;;;16.52;79.11
73341;BME280;61578;52.002;5.468;2022-07-09T00:56:35;102765.94;;;16.41;79.36
73341;BME280;61578;52.002;5.468;2022-07-09T00:57:07;102776.25;;;16.48;79.13
73341;BME280;61578;52.002;5.468;2022-07-09T00:57:40;102774.53;;;16.47;79.60
73341;BME280;61578;52.002;5.468;2022-07-09T00:58:14;102773.66;;;16.47;79.29
73341;BME280;61578;52.002;5.468;2022-07-09T00:58:47;102773.75;;;16.45;79.83
73341;BME280;61578;52.002;5.468;2022-07-09T00:59:18;102773.66;;;16.47;79.64
73341;BME280;61578;52.002;5.468;2022-07-09T00:59:48;102769.16;;;16.47;79.69
73341;BME280;61578;52.002;5.468;2022-07-09T01:00:19;102769.16;;;16.47;79.52
73341;BME280;61578;52.002;5.468;2022-07-09T01:00:50;102777.22;;;16.47;79.84
73341;BME280;61578;52.002;5.468;2022-07-09T01:01:21;102752.63;;;16.39;79.97
73341;BME280;61578;52.002;5.468;2022-07-09T01:01:52;102775.47;;;16.46;79.27
73341;BME280;61578;52.002;5.468;2022-07-09T01:02:24;102744.97;;;16.33;79.28
73341;BME280;61578;52.002;5.468;2022-07-09T01:02:55;102759.81;;;16.39;80.00
73341;BME280;61578;52.002;5.468;2022-07-09T01:03:26;102768.38;;;16.45;79.98
73341;BME280;61578;52.002;5.468;2022-07-09T01:03:56;102755.59;;;16.35;79.50
73341;BME280;61578;52.002;5.468;2022-07-09T01:04:28;102756.28;;;16.38;79.26
73341;BME280;61578;52.002;5.468;2022-07-09T01:04:59;102761.66;;;16.38;79.25
73341;BME280;61578;52.002;5.468;2022-07-09T01:05:29;102766.72;;;16.43;79.56
73341;BME280;61578;52.002;5.468;2022-07-09T01:06:06;102764.06;;;16.43;79.76
73341;BME280;61578;52.002;5.468;2022-07-09T01:06:36;102768.56;;;16.42;79.67
73341;BME280;61578;52.002;5.468;2022-07-09T01:07:07;102757.13;;;16.39;79.75
73341;BME280;61578;52.002;5.468;2022-07-09T01:07:38;102759.94;;;16.37;79.70
73341;BME280;61578;52.002;5.468;2022-07-09T01:08:09;102761.53;;;16.40;79.51
73341;BME280;61578;52.002;5.468;2022-07-09T01:08:40;102762.50;;;16.39;79.66
73341;BME280;61578;52.002;5.468;2022-07-09T01:09:11;102730.44;;;16.22;79.77
73341;BME280;61578;52.002;5.468;2022-07-09T01:09:41;102760.78;;;16.38;80.00
73341;BME280;61578;52.002;5.468;2022-07-09T01:10:12;102760.69;;;16.39;79.85
73341;BME280;61578;52.002;5.468;2022-07-09T01:10:43;102751.19;;;16.34;79.87
73341;BME280;61578;52.002;5.468;2022-07-09T01:11:15;102725.38;;;16.17;79.89
73341;BME280;61578;52.002;5.468;2022-07-09T01:11:47;102753.00;;;16.33;79.53
73341;BME280;61578;52.002;5.468;2022-07-09T01:12:18;102747.63;;;16.33;79.99
73341;BME280;61578;52.002;5.468;2022-07-09T01:12:48;102756.47;;;16.35;79.64
73341;BME280;61578;52.002;5.468;2022-07-09T01:13:19;102730.44;;;16.22;79.87
73341;BME280;61578;52.002;5.468;2022-07-09T01:13:50;102746.84;;;16.31;79.45
73341;BME280;61578;52.002;5.468;2022-07-09T01:14:21;102758.28;;;16.35;80.16
73341;BME280;61578;52.002;5.468;2022-07-09T01:14:52;102748.41;;;16.35;79.66
73341;BME280;61578;52.002;5.468;2022-07-09T01:15:23;102756.47;;;16.35;79.56
73341;BME280;61578;52.002;5.468;2022-07-09T01:15:54;102751.19;;;16.34;79.54
73341;BME280;61578;52.002;5.468;2022-07-09T01:16:32;102746.00;;;16.31;79.58
73341;BME280;61578;52.002;5.468;2022-07-09T01:17:05;102746.94;;;16.30;79.43
73341;BME280;61578;52.002;5.468;2022-07-09T01:17:40;102751.44;;;16.29;79.68
73341;BME280;61578;52.002;5.468;2022-07-09T01:18:14;102757.78;;;16.28;79.51
73341;BME280;61578;52.002;5.468;2022-07-09T01:18:48;102737.81;;;16.18;79.51
73341;BME280;61578;52.002;5.468;2022-07-09T01:19:18;102758.91;;;16.24;79.60
73341;BME280;61578;52.002;5.468;2022-07-09T01:19:49;102756.22;;;16.24;80.01
73341;BME280;61578;52.002;5.468;2022-07-09T01:20:26;102756.22;;;16.24;79.84
73341;BME280;61578;52.002;5.468;2022-07-09T01:21:00;102758.13;;;16.22;79.78
73341;BME280;61578;52.002;5.468;2022-07-09T01:21:30;102755.59;;;16.19;79.79
73341;BME280;61578;52.002;5.468;2022-07-09T01:22:02;102753.91;;;16.18;79.61
73341;BME280;61578;52.002;5.468;2022-07-09T01:22:34;102750.34;;;16.17;80.05
73341;BME280;61578;52.002;5.468;2022-07-09T01:23:05;102724.56;;;15.99;79.91
73341;BME280;61578;52.002;5.468;2022-07-09T01:23:37;102756.75;;;16.15;79.91
73341;BME280;61578;52.002;5.468;2022-07-09T01:24:08;102725.44;;;16.00;80.09
73341;BME280;61578;52.002;5.468;2022-07-09T01:24:39;102713.28;;;15.94;80.33
73341;BME280;61578;52.002;5.468;2022-07-09T01:25:16;102751.38;;;16.15;80.19
73341;BME280;61578;52.002;5.468;2022-07-09T01:25:48;102751.38;;;16.15;79.87
73341;BME280;61578;52.002;5.468;2022-07-09T01:26:18;102748.69;;;16.15;80.05
73341;BME280;61578;52.002;5.468;2022-07-09T01:26:53;102743.59;;;16.10;79.74
73341;BME280;61578;52.002;5.468;2022-07-09T01:27:24;102744.28;;;16.14;79.79
73341;BME280;61578;52.002;5.468;2022-07-09T01:27:55;102748.78;;;16.13;79.96
73341;BME280;61578;52.002;5.468;2022-07-09T01:28:26;102748.94;;;16.10;79.98
73341;BME280;61578;52.002;5.468;2022-07-09T01:28:57;102748.00;;;16.11;79.99
73341;BME280;61578;52.002;5.468;2022-07-09T01:29:27;102751.63;;;16.10;79.85
73341;BME280;61578;52.002;5.468;2022-07-09T01:29:58;102749.03;;;16.09;79.77
73341;BME280;61578;52.002;5.468;2022-07-09T01:30:29;102751.72;;;16.09;79.85
73341;BME280;61578;52.002;5.468;2022-07-09T01:31:01;102749.31;;;16.04;79.83
73341;BME280;61578;52.002;5.468;2022-07-09T01:31:32;102752.94;;;16.03;79.84
73341;BME280;61578;52.002;5.468;2022-07-09T01:32:03;102752.84;;;16.05;79.90
73341;BME280;61578;52.002;5.468;2022-07-09T01:32:34;102757.28;;;16.06;79.97
73341;BME280;61578;52.002;5.468;2022-07-09T01:33:06;102745.94;;;16.01;79.84
73341;BME280;61578;52.002;5.468;2022-07-09T01:33:37;102732.19;;;15.91;79.46
73341;BME280;61578;52.002;5.468;2022-07-09T01:34:07;102740.78;;;15.98;79.80
73341;BME280;61578;52.002;5.468;2022-07-09T01:34:38;102732.47;;;15.87;79.87
73341;BME280;61578;52.002;5.468;2022-07-09T01:35:09;102746.22;;;15.96;79.52
73341;BME280;61578;52.002;5.468;2022-07-09T01:35:39;102749.91;;;15.94;79.66
73341;BME280;61578;52.002;5.468;2022-07-09T01:36:11;102746.53;;;15.90;79.83
73341;BME280;61578;52.002;5.468;2022-07-09T01:36:42;102753.63;;;15.91;79.97
73341;BME280;61578;52.002;5.468;2022-07-09T01:37:12;102748.34;;;15.90;80.09
73341;BME280;61578;52.002;5.468;2022-07-09T01:37:43;102749.28;;;15.89;79.80
73341;BME280;61578;52.002;5.468;2022-07-09T01:38:14;102745.31;;;15.80;79.87
73341;BME280;61578;52.002;5.468;2022-07-09T01:38:44;102758.31;;;15.88;80.31
73341;BME280;61578;52.002;5.468;2022-07-09T01:39:15;102746.81;;;15.86;80.43
73341;BME280;61578;52.002;5.468;2022-07-09T01:39:46;102738.41;;;15.76;80.53
73341;BME280;61578;52.002;5.468;2022-07-09T01:40:23;102753.03;;;15.86;80.89
73341;BME280;61578;52.002;5.468;2022-07-09T01:40:54;102739.97;;;15.80;80.18
73341;BME280;61578;52.002;5.468;2022-07-09T01:41:25;102751.31;;;15.85;80.11
73341;BME280;61578;52.002;5.468;2022-07-09T01:41:55;102745.06;;;15.85;80.33
73341;BME280;61578;52.002;5.468;2022-07-09T01:42:26;102739.09;;;15.79;80.79
73341;BME280;61578;52.002;5.468;2022-07-09T01:42:57;102745.06;;;15.85;80.13
73341;BME280;61578;52.002;5.468;2022-07-09T01:43:27;102735.91;;;15.73;80.31
73341;BME280;61578;52.002;5.468;2022-07-09T01:43:58;102746.88;;;15.84;79.99
73341;BME280;61578;52.002;5.468;2022-07-09T01:44:29;102738.34;;;15.77;80.36
73341;BME280;61578;52.002;5.468;2022-07-09T01:44:59;102743.34;;;15.83;80.36
73341;BME280;61578;52.002;5.468;2022-07-09T01:45:30;102742.56;;;15.81;80.05
73341;BME280;61578;52.002;5.468;2022-07-09T01:46:01;102742.56;;;15.81;80.12
73341;BME280;61578;52.002;5.468;2022-07-09T01:46:31;102745.31;;;15.80;80.20
73341;BME280;61578;52.002;5.468;2022-07-09T01:47:03;102743.59;;;15.79;80.08
73341;BME280;61578;52.002;5.468;2022-07-09T01:47:34;102748.00;;;15.80;80.51
73341;BME280;61578;52.002;5.468;2022-07-09T01:48:04;102748.94;;;15.79;80.39
73341;BME280;61578;52.002;5.468;2022-07-09T01:48:35;102746.38;;;15.77;80.01
73341;BME280;61578;52.002;5.468;2022-07-09T01:49:06;102739.44;;;15.73;79.95
73341;BME280;61578;52.002;5.468;2022-07-09T01:49:37;102750.94;;;15.75;80.05
73341;BME280;61578;52.002;5.468;2022-07-09T01:50:09;102726.66;;;15.63;80.12
73341;BME280;61578;52.002;5.468;2022-07-09T01:50:40;102739.59;;;15.70;80.45
73341;BME280;61578;52.002;5.468;2022-07-09T01:51:14;102734.69;;;15.63;80.65
73341;BME280;61578;52.002;5.468;2022-07-09T01:51:45;102745.66;;;15.74;80.34
73341;BME280;61578;52.002;5.468;2022-07-09T01:52:16;102747.56;;;15.72;80.60
73341;BME280;61578;52.002;5.468;2022-07-09T01:52:47;102741.50;;;15.68;80.25
73341;BME280;61578;52.002;5.468;2022-07-09T01:53:17;102739.81;;;15.67;80.46
73341;BME280;61578;52.002;5.468;2022-07-09T01:53:48;102743.06;;;15.72;80.67
73341;BME280;61578;52.002;5.468;2022-07-09T01:54:19;102737.88;;;15.69;80.70
73341;BME280;61578;52.002;5.468;2022-07-09T01:54:49;102744.88;;;15.72;80.58
73341;BME280;61578;52.002;5.468;2022-07-09T01:55:20;102744.88;;;15.72;80.34
73341;BME280;61578;52.002;5.468;2022-07-09T01:55:51;102736.84;;;15.72;80.83
73341;BME280;61578;52.002;5.468;2022-07-09T01:56:21;102738.75;;;15.70;80.75
73341;BME280;61578;52.002;5.468;2022-07-09T01:56:52;102725.88;;;15.61;80.19
73341;BME280;61578;52.002;5.468;2022-07-09T01:57:23;102721.22;;;15.64;79.97
73341;BME280;61578;52.002;5.468;2022-07-09T01:57:53;102739.59;;;15.70;80.18
73341;BME280;61578;52.002;5.468;2022-07-09T01:58:24;102739.88;;;15.66;80.14
73341;BME280;61578;52.002;5.468;2022-07-09T01:58:55;102722.50;;;15.57;80.15
73341;BME280;61578;52.002;5.468;2022-07-09T01:59:25;102733.91;;;15.61;79.92
73341;BME280;61578;52.002;5.468;2022-07-09T01:59:56;102732.88;;;15.63;80.35
73341;BME280;61578;52.002;5.468;2022-07-09T02:00:27;102732.72;;;15.66;80.48
73341;BME280;61578;52.002;5.468;2022-07-09T02:00:59;102725.06;;;15.59;79.92
73341;BME280;61578;52.002;5.468;2022-07-09T02:01:30;102735.47;;;15.65;80.15
73341;BME280;61578;52.002;5.468;2022-07-09T02:02:00;102738.22;;;15.63;80.13
73341;BME280;61578;52.002;5.468;2022-07-09T02:02:31;102728.16;;;15.51;80.22
73341;BME280;61578;52.002;5.468;2022-07-09T02:03:02;102737.53;;;15.60;80.17
73341;BME280;61578;52.002;5.468;2022-07-09T02:03:33;102728.81;;;15.56;80.93
73341;BME280;61578;52.002;5.468;2022-07-09T02:04:04;102733.97;;;15.59;80.70
73341;BME280;61578;52.002;5.468;2022-07-09T02:04:34;102734.91;;;15.58;80.51
73341;BME280;61578;52.002;5.468;2022-07-09T02:05:06;102730.72;;;15.54;80.87
73341;BME280;61578;52.002;5.468;2022-07-09T02:05:37;102723.91;;;15.47;81.10
73341;BME280;61578;52.002;5.468;2022-07-09T02:06:07;102744.88;;;15.56;80.64
73341;BME280;61578;52.002;5.468;2022-07-09T02:06:38;102734.25;;;15.55;80.74
73341;BME280;61578;52.002;5.468;2022-07-09T02:07:09;102739.66;;;15.53;81.14
73341;BME280;61578;52.002;5.468;2022-07-09T02:07:39;102739.59;;;15.55;81.16
73341;BME280;61578;52.002;5.468;2022-07-09T02:08:10;102735.13;;;15.55;80.89
73341;BME280;61578;52.002;5.468;2022-07-09T02:08:41;102721.16;;;15.48;80.74
73341;BME280;61578;52.002;5.468;2022-07-09T02:09:12;102721.34;;;15.45;81.17
73341;BME280;61578;52.002;5.468;2022-07-09T02:09:42;102725.19;;;15.57;80.74
73341;BME280;61578;52.002;5.468;2022-07-09T02:10:13;102724.88;;;15.46;80.71
73341;BME280;61578;52.002;5.468;2022-07-09T02:10:44;102729.75;;;15.55;80.96
73341;BME280;61578;52.002;5.468;2022-07-09T02:11:16;102721.94;;;15.51;81.07
73341;BME280;61578;52.002;5.468;2022-07-09T02:11:46;102722.66;;;15.54;81.31
73341;BME280;61578;52.002;5.468;2022-07-09T02:12:18;102703.53;;;15.44;81.21
73341;BME280;61578;52.002;5.468;2022-07-09T02:12:49;102720.78;;;15.56;81.09
73341;BME280;61578;52.002;5.468;2022-07-09T02:13:20;102709.56;;;15.48;81.33
73341;BME280;61578;52.002;5.468;2022-07-09T02:13:50;102718.84;;;15.58;81.13
73341;BME280;61578;52.002;5.468;2022-07-09T02:14:21;102710.19;;;15.53;81.33
73341;BME280;61578;52.002;5.468;2022-07-09T02:14:52;102713.34;;;15.61;81.60
73341;BME280;61578;52.002;5.468;2022-07-09T02:15:22;102715.16;;;15.61;81.01
73341;BME280;61578;52.002;5.468;2022-07-09T02:15:53;102708.16;;;15.58;81.42
73341;BME280;61578;52.002;5.468;2022-07-09T02:16:24;102719.56;;;15.62;81.10
73341;BME280;61578;52.002;5.468;2022-07-09T02:16:55;102709.00;;;15.59;81.35
73341;BME280;61578;52.002;5.468;2022-07-09T02:17:25;102696.88;;;15.52;81.09
73341;BME280;61578;52.002;5.468;2022-07-09T02:17:56;102710.81;;;15.58;80.79
73341;BME280;61578;52.002;5.468;2022-07-09T02:18:27;102709.81;;;15.61;81.08
73341;BME280;61578;52.002;5.468;2022-07-09T02:18:59;102707.19;;;15.59;80.80
73341;BME280;61578;52.002;5.468;2022-07-09T02:19:29;102696.19;;;15.48;80.64
73341;BME280;61578;52.002;5.468;2022-07-09T02:20:00;102715.22;;;15.59;81.01
73341;BME280;61578;52.002;5.468;2022-07-09T02:20:31;102683.94;;;15.44;80.79
73341;BME280;61578;52.002;5.468;2022-07-09T02:21:03;102696.09;;;15.50;80.75
73341;BME280;61578;52.002;5.468;2022-07-09T02:21:35;102711.81;;;15.57;80.27
73341;BME280;61578;52.002;5.468;2022-07-09T02:22:06;102716.41;;;15.54;80.72
73341;BME280;61578;52.002;5.468;2022-07-09T02:22:36;102716.41;;;15.54;80.64
73341;BME280;61578;52.002;5.468;2022-07-09T02:23:07;102707.47;;;15.55;80.71
73341;BME280;61578;52.002;5.468;2022-07-09T02:23:38;102711.97;;;15.54;80.73
73341;BME280;61578;52.002;5.468;2022-07-09T02:24:09;102695.50;;;15.44;80.53
73341;BME280;61578;52.002;5.468;2022-07-09T02:24:39;102706.88;;;15.48;80.38
73341;BME280;61578;52.002;5.468;2022-07-09T02:25:10;102700.00;;;15.44;80.78
73341;BME280;61578;52.002;5.468;2022-07-09T02:25:41;102662.31;;;15.16;80.47
73341;BME280;61578;52.002;5.468;2022-07-09T02:26:11;102708.91;;;15.44;80.61
73341;BME280;61578;52.002;5.468;2022-07-09T02:26:42;102715.88;;;15.47;80.92
73341;BME280;61578;52.002;5.468;2022-07-09T02:27:13;102707.41;;;15.39;81.10
73341;BME280;61578;52.002;5.468;2022-07-09T02:27:43;102715.28;;;15.42;81.17
73341;BME280;61578;52.002;5.468;2022-07-09T02:28:14;102706.53;;;15.38;81.25
73341;BME280;61578;52.002;5.468;2022-07-09T02:28:44;102716.94;;;15.44;81.20
73341;BME280;61578;52.002;5.468;2022-07-09T02:29:15;102716.13;;;15.42;80.76
73341;BME280;61578;52.002;5.468;2022-07-09T02:29:46;102705.94;;;15.33;80.97
73341;BME280;61578;52.002;5.468;2022-07-09T02:30:16;102669.47;;;15.15;81.04
73341;BME280;61578;52.002;5.468;2022-07-09T02:30:47;102698.22;;;15.27;81.12
73341;BME280;61578;52.002;5.468;2022-07-09T02:31:18;102713.63;;;15.39;81.05
73341;BME280;61578;52.002;5.468;2022-07-09T02:31:48;102718.81;;;15.42;81.30
73341;BME280;61578;52.002;5.468;2022-07-09T02:32:19;102705.94;;;15.33;80.56
73341;BME280;61578;52.002;5.468;2022-07-09T02:32:49;102722.34;;;15.43;80.78
73341;BME280;61578;52.002;5.468;2022-07-09T02:33:21;102719.69;;;15.43;80.74
73341;BME280;61578;52.002;5.468;2022-07-09T02:33:52;102720.63;;;15.42;81.12
73341;BME280;61578;52.002;5.468;2022-07-09T02:34:24;102716.22;;;15.41;80.96
73341;BME280;61578;52.002;5.468;2022-07-09T02:34:55;102715.34;;;15.40;80.71
73341;BME280;61578;52.002;5.468;2022-07-09T02:35:25;102720.78;;;15.39;80.99
73341;BME280;61578;52.002;5.468;2022-07-09T02:35:56;102717.31;;;15.37;81.00
73341;BME280;61578;52.002;5.468;2022-07-09T02:36:26;102721.06;;;15.34;81.03
73341;BME280;61578;52.002;5.468;2022-07-09T02:36:57;102715.69;;;15.34;80.96
73341;BME280;61578;52.002;5.468;2022-07-09T02:37:28;102709.13;;;15.24;81.01
73341;BME280;61578;52.002;5.468;2022-07-09T02:37:59;102724.59;;;15.35;81.45
73341;BME280;61578;52.002;5.468;2022-07-09T02:38:29;102726.31;;;15.36;81.07
73341;BME280;61578;52.002;5.468;2022-07-09T02:39:00;102695.03;;;15.21;81.14
73341;BME280;61578;52.002;5.468;2022-07-09T02:39:31;102707.13;;;15.28;80.97
73341;BME280;61578;52.002;5.468;2022-07-09T02:40:02;102720.09;;;15.35;80.98
73341;BME280;61578;52.002;5.468;2022-07-09T02:40:34;102714.03;;;15.32;81.39
73341;BME280;61578;52.002;5.468;2022-07-09T02:41:05;102722.94;;;15.32;80.97
73341;BME280;61578;52.002;5.468;2022-07-09T02:41:36;102699.28;;;15.25;80.86
73341;BME280;61578;52.002;5.468;2022-07-09T02:42:06;102719.25;;;15.35;81.02
73341;BME280;61578;52.002;5.468;2022-07-09T02:42:37;102716.94;;;15.27;81.11
73341;BME280;61578;52.002;5.468;2022-07-09T02:43:08;102688.88;;;15.19;81.59